Time;durP1;ratioP1;P1;durP2;ratioP2;P2;SDS_P1;SDS_P2;PMS_P1;PMS_P2;Temp;Humidity;BMP_temperature;BMP_pressure;BME280_temperature;BME280_humidity;BME280_pressure;Samples;Min_cycle;Max_cycle;Signal;HPM_P1;HPM_P2
2023/04/26 00:02:27;;;;;;;3.13;1.40;;;17.70;68.30;;;;;;5051867;28;20049;-31
2023/04/26 00:04:54;;;;;;;2.17;1.40;;;18.40;68.30;;;;;;5051720;28;20486;-31
2023/04/26 00:07:22;;;;;;;2.15;1.30;;;18.50;61.80;;;;;;5051439;28;20406;-30
2023/04/26 00:09:49;;;;;;;1.98;1.42;;;;;;;;;;5052028;28;20056;-32
2023/04/26 00:12:16;;;;;;;1.88;1.40;;;18.20;68.20;;;;;;5051819;28;20055;-30
2023/04/26 00:14:44;;;;;;;2.65;1.20;;;18.30;68.30;;;;;;5052055;28;20057;-30
2023/04/26 00:17:13;;;;;;;2.58;1.38;;;17.90;68.10;;;;;;5051197;28;20111;-30
2023/04/26 00:19:40;;;;;;;1.73;1.40;;;17.50;68.40;;;;;;5051781;28;20059;-30
2023/04/26 00:22:08;;;;;;;3.15;1.50;;;;;;;;;;5052878;28;20056;-32
2023/04/26 00:24:35;;;;;;;2.47;1.40;;;18.10;68.30;;;;;;5071662;28;20044;-30
2023/04/26 00:27:07;;;;;;;2.65;1.25;;;17.70;68.10;;;;;;5069710;28;20481;-30
2023/04/26 00:29:34;;;;;;;2.85;1.40;;;17.20;64.00;;;;;;5051810;28;20075;-30
2023/04/26 00:32:02;;;;;;;3.03;1.20;;;18.30;68.70;;;;;;5051643;28;20059;-30
2023/04/26 00:34:32;;;;;;;3.45;1.55;;;18.60;69.00;;;;;;5051759;28;20132;-30
2023/04/26 00:36:59;;;;;;;3.45;1.60;;;17.50;68.00;;;;;;5033216;28;20072;-30
2023/04/26 00:39:26;;;;;;;3.45;1.40;;;;;;;;;;5051605;28;20048;-30
2023/04/26 00:41:53;;;;;;;2.70;1.55;;;16.70;68.00;;;;;;5051204;28;20041;-30
2023/04/26 00:44:20;;;;;;;2.35;1.40;;;;;;;;;;5051077;28;20520;-31
2023/04/26 00:46:47;;;;;;;2.95;1.50;;;18.10;68.30;;;;;;5051673;28;20470;-30
2023/04/26 00:49:16;;;;;;;2.75;1.60;;;18.00;68.80;;;;;;5051300;28;20053;-31
2023/04/26 00:51:43;;;;;;;2.58;1.33;;;18.50;69.00;;;;;;5051611;28;20045;-30
2023/04/26 00:54:09;;;;;;;2.40;1.30;;;18.00;68.40;;;;;;5051387;28;20413;-30
2023/04/26 00:56:37;;;;;;;1.77;1.30;;;;;;;;;;5051573;28;20469;-30
2023/04/26 00:59:03;;;;;;;1.90;1.20;;;17.60;68.60;;;;;;5050896;28;20052;-30
2023/04/26 01:01:30;;;;;;;2.22;1.30;;;17.90;68.40;;;;;;5051367;28;20051;-30
2023/04/26 01:03:57;;;;;;;2.33;1.33;;;17.30;58.40;;;;;;5051176;28;20486;-30
2023/04/26 01:06:25;;;;;;;4.15;1.40;;;16.80;48.30;;;;;;5051619;28;20045;-30
2023/04/26 01:08:51;;;;;;;2.88;1.27;;;17.50;68.50;;;;;;5051050;28;20051;-30
2023/04/26 01:11:19;;;;;;;1.75;1.25;;;17.10;68.10;;;;;;5051173;28;20548;-30
2023/04/26 01:13:46;;;;;;;5.53;1.63;;;18.70;68.80;;;;;;5051047;28;20107;-30
2023/04/26 01:16:13;;;;;;;2.22;1.30;;;;;;;;;;5051179;28;20523;-31
2023/04/26 01:18:41;;;;;;;2.33;1.38;;;18.60;69.00;;;;;;5050989;28;20486;-30
2023/04/26 01:21:10;;;;;;;5.47;1.42;;;18.20;68.80;;;;;;5051372;28;20456;-30
2023/04/26 01:23:38;;;;;;;3.50;1.63;;;18.50;69.40;;;;;;5064118;28;20082;-30
2023/04/26 01:26:04;;;;;;;2.22;1.45;;;18.60;69.10;;;;;;5071156;28;20053;-30
2023/04/26 01:28:31;;;;;;;3.28;1.27;;;;;;;;;;5059159;28;20136;-31
2023/04/26 01:30:58;;;;;;;2.40;1.30;;;17.40;68.50;;;;;;5054948;28;20049;-30
2023/04/26 01:33:25;;;;;;;2.95;1.35;;;17.40;68.40;;;;;;5054622;28;20049;-30
2023/04/26 01:35:52;;;;;;;2.17;1.33;;;16.80;56.80;;;;;;5054018;28;20055;-30
2023/04/26 01:38:19;;;;;;;4.13;1.20;;;17.00;68.50;;;;;;5054122;28;20049;-30
2023/04/26 01:40:47;;;;;;;2.90;1.30;;;18.50;69.30;;;;;;5054894;28;20079;-30
2023/04/26 01:43:14;;;;;;;3.30;1.30;;;17.40;68.40;;;;;;5054335;28;20049;-30
2023/04/26 01:45:41;;;;;;;2.50;1.20;;;18.00;69.10;;;;;;5054184;28;20555;-30
2023/04/26 01:48:07;;;;;;;2.35;1.10;;;17.80;68.60;;;;;;5054301;28;20053;-30
2023/04/26 01:50:34;;;;;;;2.58;1.23;;;17.70;63.80;;;;;;5054341;28;20513;-30
2023/04/26 01:53:01;;;;;;;2.33;1.23;;;17.80;56.10;;;;;;5054167;28;20127;-30
2023/04/26 01:55:28;;;;;;;2.05;1.30;;;17.80;68.80;;;;;;5054350;28;20045;-30
2023/04/26 01:57:56;;;;;;;2.50;1.30;;;17.50;51.50;;;;;;5054008;28;20493;-31
2023/04/26 02:00:22;;;;;;;2.33;1.40;;;17.40;54.30;;;;;;5054490;28;20409;-30
2023/04/26 02:02:49;;;;;;;2.67;1.40;;;17.50;68.80;;;;;;5054033;28;20055;-31
2023/04/26 02:05:16;;;;;;;1.20;1.10;;;17.70;69.20;;;;;;5054143;28;20055;-30
2023/04/26 02:07:42;;;;;;;2.20;1.38;;;18.00;52.80;;;;;;5053840;28;20091;-30
2023/04/26 02:10:09;;;;;;;3.15;1.25;;;18.60;69.30;;;;;;5054518;28;20444;-30
2023/04/26 02:12:37;;;;;;;2.20;1.10;;;;;;;;;;5054098;28;20053;-32
2023/04/26 02:15:05;;;;;;;3.03;1.30;;;17.80;68.80;;;;;;5054049;28;20049;-30
2023/04/26 02:17:32;;;;;;;1.90;1.20;;;17.10;68.90;;;;;;5053359;28;20060;-30
2023/04/26 02:19:59;;;;;;;2.10;1.17;;;17.00;57.50;;;;;;5053720;28;20067;-30
2023/04/26 02:22:26;;;;;;;3.13;1.27;;;;;;;;;;5057078;28;20048;-31
2023/04/26 02:24:53;;;;;;;1.80;1.20;;;;;;;;;;5073703;28;20051;-30
2023/04/26 02:27:20;;;;;;;1.90;1.13;;;18.40;70.30;;;;;;5072485;28;20049;-30
2023/04/26 02:29:47;;;;;;;2.45;1.23;;;18.50;70.00;;;;;;5053393;28;20649;-30
2023/04/26 02:32:15;;;;;;;1.85;1.08;;;17.60;69.40;;;;;;5053719;28;20081;-30
2023/04/26 02:34:43;;;;;;;2.50;1.23;;;17.30;69.60;;;;;;5053475;28;20138;-29
2023/04/26 02:37:10;;;;;;;1.40;1.20;;;;;;;;;;5053122;28;20131;-30
2023/04/26 02:39:36;;;;;;;2.03;1.20;;;16.30;69.30;;;;;;5052790;28;20048;-30
2023/04/26 02:42:04;;;;;;;3.20;1.23;;;;;;;;;;5053711;28;20472;-33
2023/04/26 02:44:30;;;;;;;3.38;1.45;;;16.80;69.50;;;;;;5053203;28;20048;-30
2023/04/26 02:46:57;;;;;;;2.15;1.10;;;17.20;69.70;;;;;;5053470;28;20049;-30
2023/04/26 02:49:25;;;;;;;1.67;1.20;;;17.10;57.40;;;;;;5052978;28;20049;-30
2023/04/26 02:51:52;;;;;;;1.85;1.10;;;17.40;54.40;;;;;;5053674;28;20413;-30
2023/04/26 02:54:18;;;;;;;3.28;1.13;;;16.00;69.10;;;;;;5053093;28;20051;-30
2023/04/26 02:56:45;;;;;;;1.83;1.10;;;17.00;53.00;;;;;;5052940;28;20080;-31
2023/04/26 02:59:12;;;;;;;1.85;1.25;;;;;;;;;;5053166;28;20398;-31
2023/04/26 03:01:39;;;;;;;1.25;1.00;;;16.60;69.50;;;;;;5035434;28;20052;-30
2023/04/26 03:04:06;;;;;;;1.60;1.08;;;;;;;;;;5052701;28;20048;-31
2023/04/26 03:06:34;;;;;;;2.00;1.15;;;16.70;69.10;;;;;;5052621;28;20053;-31
2023/04/26 03:09:01;;;;;;;3.25;1.30;;;18.10;58.20;;;;;;5052733;28;20516;-30
2023/04/26 03:11:27;;;;;;;3.08;1.30;;;17.40;69.50;;;;;;5052973;28;20059;-30
2023/04/26 03:13:55;;;;;;;2.40;1.55;;;;;;;;;;5052717;28;20063;-31
2023/04/26 03:16:22;;;;;;;2.20;1.35;;;17.10;69.70;;;;;;5052992;28;20056;-31
2023/04/26 03:18:49;;;;;;;2.10;1.10;;;17.90;68.20;;;;;;5052627;28;20055;-30
2023/04/26 03:21:16;;;;;;;2.25;1.23;;;17.30;70.00;;;;;;5052525;28;20087;-30
2023/04/26 03:23:44;;;;;;;1.98;1.30;;;17.10;48.90;;;;;;5066687;28;20048;-30
2023/04/26 03:26:10;;;;;;;2.55;1.27;;;17.80;69.80;;;;;;5072678;28;20051;-30
2023/04/26 03:28:37;;;;;;;2.38;1.30;;;17.80;62.70;;;;;;5061566;28;20048;-30
2023/04/26 03:31:04;;;;;;;1.55;1.10;;;17.40;69.50;;;;;;5052354;28;20045;-30
2023/04/26 03:33:31;;;;;;;1.60;1.13;;;;;;;;;;5052445;28;20055;-30
2023/04/26 03:35:58;;;;;;;3.83;1.23;;;17.40;69.60;;;;;;5051985;28;20056;-30
2023/04/26 03:38:24;;;;;;;1.98;1.35;;;17.60;69.70;;;;;;5034260;28;20049;-30
2023/04/26 03:40:52;;;;;;;1.80;1.10;;;17.00;52.30;;;;;;5052714;28;20134;-31
2023/04/26 03:43:20;;;;;;;2.17;1.20;;;;;;;;;;5052417;28;20151;-30
2023/04/26 03:45:47;;;;;;;1.73;1.10;;;17.50;69.70;;;;;;5034240;28;20499;-30
2023/04/26 03:48:14;;;;;;;1.80;1.35;;;17.30;69.50;;;;;;5052094;28;20045;-30
2023/04/26 03:50:43;;;;;;;1.40;1.10;;;17.20;69.90;;;;;;5051980;28;20128;-30
2023/04/26 03:53:10;;;;;;;2.97;1.20;;;17.00;59.20;;;;;;5051397;28;20497;-30
2023/04/26 03:55:37;;;;;;;1.50;1.00;;;;;;;;;;5052411;28;20045;-30
2023/04/26 03:58:06;;;;;;;1.50;1.23;;;17.20;49.00;;;;;;5051770;28;20047;-31
2023/04/26 04:00:33;;;;;;;1.85;1.10;;;17.10;69.50;;;;;;5052337;28;20048;-30
2023/04/26 04:03:00;;;;;;;1.80;1.10;;;18.10;54.90;;;;;;5051768;28;20409;-31
2023/04/26 04:05:27;;;;;;;1.90;1.00;;;17.30;69.80;;;;;;5034302;28;20132;-30
2023/04/26 04:07:55;;;;;;;1.25;0.90;;;17.10;69.30;;;;;;5053021;28;20506;-30
2023/04/26 04:10:22;;;;;;;1.73;1.08;;;17.00;69.30;;;;;;5072011;28;20461;-31
2023/04/26 04:12:49;;;;;;;2.13;1.10;;;17.90;69.90;;;;;;5071586;28;20056;-30
2023/04/26 04:15:18;;;;;;;1.88;1.25;;;17.40;48.80;;;;;;5072144;28;20143;-31
2023/04/26 04:17:45;;;;;;;2.42;1.38;;;17.40;69.10;;;;;;5069428;28;20048;-30
2023/04/26 04:20:12;;;;;;;2.55;1.10;;;17.50;48.80;;;;;;5051960;28;20044;-30
2023/04/26 04:22:39;;;;;;;1.45;0.90;;;17.90;69.60;;;;;;5057011;28;20052;-30
2023/04/26 04:25:07;;;;;;;3.13;1.13;;;17.60;69.20;;;;;;5071674;28;20447;-30
2023/04/26 04:27:35;;;;;;;2.55;1.20;;;17.50;69.00;;;;;;5058438;28;20057;-30
2023/04/26 04:30:03;;;;;;;3.33;0.90;;;18.80;70.00;;;;;;5051854;28;20049;-30
2023/04/26 04:32:33;;;;;;;2.47;1.00;;;18.70;69.80;;;;;;5051367;28;20056;-30
2023/04/26 04:34:59;;;;;;;1.40;1.00;;;17.60;67.00;;;;;;5051678;28;20054;-30
2023/04/26 04:37:27;;;;;;;1.98;1.20;;;16.90;68.40;;;;;;5051128;28;20064;-30
2023/04/26 04:39:54;;;;;;;2.15;1.10;;;16.80;68.20;;;;;;5051230;28;20049;-30
2023/04/26 04:42:21;;;;;;;1.75;1.05;;;18.30;69.00;;;;;;5051498;28;20409;-30
2023/04/26 04:44:48;;;;;;;1.48;1.00;;;;;;;;;;5051761;28;20053;-30
2023/04/26 04:47:16;;;;;;;1.33;0.88;;;;;;;;;;5051481;28;20060;-31
2023/04/26 04:49:44;;;;;;;2.20;1.00;;;18.00;69.00;;;;;;5051383;28;20055;-30
2023/04/26 04:52:11;;;;;;;2.97;1.35;;;18.50;67.50;;;;;;5051179;28;20131;-30
2023/04/26 04:54:38;;;;;;;1.48;1.00;;;17.90;65.00;;;;;;5051726;28;20131;-30
2023/04/26 04:57:05;;;;;;;1.92;1.13;;;18.10;48.20;;;;;;5051606;28;20045;-30
2023/04/26 04:59:32;;;;;;;2.00;1.17;;;;;;;;;;5051365;28;20049;-31
2023/04/26 05:01:59;;;;;;;2.30;1.08;;;16.90;67.60;;;;;;5054864;28;20072;-30
2023/04/26 05:04:25;;;;;;;1.73;0.98;;;18.40;68.40;;;;;;5074722;28;20445;-29
2023/04/26 05:06:53;;;;;;;2.13;1.10;;;18.40;63.30;;;;;;5075405;28;20500;-30
2023/04/26 05:09:20;;;;;;;1.75;1.08;;;17.60;59.50;;;;;;5061075;28;20049;-31
2023/04/26 05:11:47;;;;;;;2.60;1.10;;;18.90;68.60;;;;;;5055484;28;20049;-30
2023/04/26 05:14:14;;;;;;;1.85;1.05;;;;;;;;;;5054900;28;20049;-32
2023/04/26 05:16:41;;;;;;;1.75;0.93;;;18.10;68.30;;;;;;5055138;28;20103;-30
2023/04/26 05:19:08;;;;;;;2.53;1.25;;;;;;;;;;5054869;28;20057;-31
2023/04/26 05:21:35;;;;;;;2.13;1.25;;;17.90;68.20;;;;;;5054896;28;20136;-30
2023/04/26 05:24:04;;;;;;;1.38;1.00;;;18.70;68.60;;;;;;5052940;28;20041;-30
2023/04/26 05:26:31;;;;;;;1.70;1.00;;;17.10;54.90;;;;;;5054621;28;20049;-31
2023/04/26 05:28:57;;;;;;;1.70;1.05;;;18.50;67.90;;;;;;5054537;28;20040;-30
2023/04/26 05:31:24;;;;;;;1.00;0.80;;;18.10;68.20;;;;;;5054517;28;20072;-30
2023/04/26 05:33:51;;;;;;;2.30;1.00;;;18.90;68.10;;;;;;5054602;28;20057;-30
2023/04/26 05:36:18;;;;;;;1.27;0.82;;;18.60;68.10;;;;;;5054416;28;20052;-30
2023/04/26 05:38:45;;;;;;;1.23;0.95;;;;;;;;;;5054368;28;20103;-31
2023/04/26 05:41:13;;;;;;;0.98;0.90;;;18.70;68.40;;;;;;5054573;28;20055;-30
2023/04/26 05:43:40;;;;;;;1.25;0.93;;;18.10;67.70;;;;;;5054455;28;20180;-30
2023/04/26 05:46:06;;;;;;;1.70;0.90;;;18.40;68.10;;;;;;5054427;28;20048;-30
2023/04/26 05:48:33;;;;;;;1.50;1.17;;;;;;;;;;5054243;28;20127;-30
2023/04/26 05:51:00;;;;;;;1.40;0.93;;;17.90;67.80;;;;;;5054242;28;20055;-31
2023/04/26 05:53:27;;;;;;;0.70;0.70;;;18.40;68.10;;;;;;5054103;28;20666;-30
2023/04/26 05:55:53;;;;;;;1.58;0.93;;;19.00;56.60;;;;;;5054432;28;20060;-30
2023/04/26 05:58:22;;;;;;;1.88;1.05;;;18.40;47.70;;;;;;5054068;28;20436;-30
2023/04/26 06:00:48;;;;;;;1.63;1.10;;;18.40;68.10;;;;;;5053929;28;20053;-30
2023/04/26 06:03:15;;;;;;;1.10;0.90;;;18.80;68.40;;;;;;5053626;28;20049;-30
2023/04/26 06:05:42;;;;;;;0.95;0.70;;;;;;;;;;5054402;28;20077;-31
2023/04/26 06:08:09;;;;;;;1.90;1.00;;;18.30;68.10;;;;;;5054077;28;20045;-30
2023/04/26 06:10:37;;;;;;;1.48;0.90;;;;;;;;;;5054258;28;20137;-31
2023/04/26 06:13:04;;;;;;;2.60;1.10;;;;;;;;;;5060241;28;20041;-30
2023/04/26 06:15:32;;;;;;;1.55;0.98;;;18.70;68.10;;;;;;5050295;28;20052;-30
2023/04/26 06:17:59;;;;;;;1.38;0.93;;;18.50;68.20;;;;;;5037338;28;20049;-30
2023/04/26 06:20:26;;;;;;;1.42;1.10;;;;;;;;;;5053551;28;20052;-32
2023/04/26 06:22:53;;;;;;;3.22;1.08;;;19.00;68.00;;;;;;5053654;28;20053;-30
2023/04/26 06:25:20;;;;;;;1.92;1.10;;;17.20;67.00;;;;;;5054035;28;20048;-30
2023/04/26 06:27:47;;;;;;;1.02;0.80;;;18.70;57.80;;;;;;5053397;28;20517;-30
2023/04/26 06:30:14;;;;;;;1.17;1.00;;;18.80;68.20;;;;;;5053278;28;20048;-30
2023/04/26 06:32:42;;;;;;;2.03;1.13;;;17.80;67.10;;;;;;5053625;28;20083;-30
2023/04/26 06:35:09;;;;;;;1.73;1.00;;;18.90;67.80;;;;;;5053661;28;20055;-31
2023/04/26 06:37:37;;;;;;;1.00;0.90;;;18.90;67.80;;;;;;5053168;28;20412;-30
2023/04/26 06:40:04;;;;;;;1.85;1.08;;;19.50;67.90;;;;;;5053549;28;20055;-30
2023/04/26 06:42:31;;;;;;;0.85;0.80;;;19.10;67.20;;;;;;5052942;28;20114;-30
2023/04/26 06:44:58;;;;;;;1.80;0.73;;;18.20;67.00;;;;;;5035953;28;20060;-30
2023/04/26 06:47:25;;;;;;;2.00;0.90;;;19.20;67.10;;;;;;5053321;28;20049;-30
2023/04/26 06:49:53;;;;;;;1.63;1.10;;;18.80;57.20;;;;;;5047121;28;20046;-31
2023/04/26 06:52:19;;;;;;;2.40;0.88;;;18.80;56.50;;;;;;5047515;28;20531;-29
2023/04/26 06:54:46;;;;;;;1.60;0.85;;;19.20;67.00;;;;;;5052977;28;20055;-30
2023/04/26 06:57:13;;;;;;;1.35;0.80;;;19.50;60.50;;;;;;5052702;28;20040;-30
2023/04/26 06:59:39;;;;;;;1.58;0.95;;;18.60;50.80;;;;;;5045971;28;20045;-30
2023/04/26 07:02:06;;;;;;;1.52;0.93;;;18.70;46.70;;;;;;5035839;28;20425;-31
2023/04/26 07:04:33;;;;;;;1.25;0.80;;;;;;;;;;5033022;28;20042;-30
2023/04/26 07:07:01;;;;;;;0.90;0.80;;;19.50;46.80;;;;;;5036595;28;20052;-31
2023/04/26 07:09:28;;;;;;;1.20;0.90;;;19.90;66.30;;;;;;5046477;28;20056;-31
2023/04/26 07:11:55;;;;;;;2.50;1.00;;;20.10;66.70;;;;;;5052751;28;20045;-30
2023/04/26 07:14:21;;;;;;;1.17;0.82;;;20.70;66.80;;;;;;5052281;28;20437;-30
2023/04/26 07:16:48;;;;;;;1.60;0.93;;;19.30;61.00;;;;;;5051183;28;20508;-31
2023/04/26 07:19:15;;;;;;;1.85;0.93;;;;;;;;;;5051683;28;20041;-30
2023/04/26 07:21:43;;;;;;;2.05;1.00;;;19.80;66.00;;;;;;5052224;28;20055;-30
2023/04/26 07:24:12;;;;;;;0.95;0.80;;;20.40;66.20;;;;;;5070163;28;20282;-30
2023/04/26 07:26:40;;;;;;;1.67;1.00;;;19.00;65.30;;;;;;5072537;28;20094;-30
2023/04/26 07:29:06;;;;;;;1.23;0.75;;;19.80;54.70;;;;;;5072616;28;20055;-30
2023/04/26 07:31:33;;;;;;;1.35;1.00;;;19.80;65.70;;;;;;5072780;28;20076;-31
2023/04/26 07:34:00;;;;;;;2.13;0.90;;;19.70;65.60;;;;;;5072082;28;20044;-30
2023/04/26 07:36:27;;;;;;;2.30;1.10;;;;;;;;;;5028807;28;20057;-31
2023/04/26 07:38:54;;;;;;;1.17;0.90;;;20.40;66.30;;;;;;5046593;28;20049;-30
2023/04/26 07:41:22;;;;;;;2.33;0.90;;;20.10;46.30;;;;;;5051619;28;20402;-31
2023/04/26 07:43:49;;;;;;;2.25;1.10;;;20.20;48.90;;;;;;5051559;28;20079;-31
2023/04/26 07:46:15;;;;;;;1.35;0.80;;;20.80;66.10;;;;;;5052010;28;20398;-30
2023/04/26 07:48:42;;;;;;;1.10;0.90;;;20.80;66.00;;;;;;5051713;28;20056;-30
2023/04/26 07:51:10;;;;;;;1.38;0.90;;;20.50;50.90;;;;;;5051441;28;20494;-31
2023/04/26 07:53:37;;;;;;;1.85;0.80;;;19.90;65.50;;;;;;5051596;28;20045;-30
2023/04/26 07:56:04;;;;;;;2.40;1.10;;;21.00;65.40;;;;;;5051641;28;20413;-30
2023/04/26 07:58:32;;;;;;;1.67;0.82;;;21.10;46.50;;;;;;5051251;28;20049;-31
2023/04/26 08:01:00;;;;;;;3.03;0.93;;;;;;;;;;5051568;28;20069;-31
2023/04/26 08:03:27;;;;;;;1.38;0.88;;;;;;;;;;5051358;28;20056;-29
2023/04/26 08:05:54;;;;;;;1.42;0.90;;;20.50;65.30;;;;;;5050175;28;20049;-29
2023/04/26 08:08:21;;;;;;;0.95;0.77;;;19.80;65.00;;;;;;5051102;28;20494;-29
2023/04/26 08:10:48;;;;;;;2.05;1.00;;;21.00;65.40;;;;;;5051655;28;20119;-29
2023/04/26 08:13:15;;;;;;;2.65;1.15;;;20.20;65.00;;;;;;5033475;28;20048;-29
2023/04/26 08:15:43;;;;;;;1.00;0.80;;;20.60;45.80;;;;;;5051638;28;20055;-31
2023/04/26 08:18:10;;;;;;;2.25;1.10;;;;;;;;;;5051217;28;20397;-30
2023/04/26 08:20:37;;;;;;;1.88;1.05;;;21.30;65.20;;;;;;5050949;28;20399;-29
2023/04/26 08:23:04;;;;;;;1.08;0.85;;;21.30;53.50;;;;;;5049255;28;20037;-30
2023/04/26 08:25:33;;;;;;;2.25;1.00;;;;;;;;;;5051334;28;20049;-30
2023/04/26 08:28:00;;;;;;;1.02;0.90;;;;;;;;;;5051226;28;20056;-31
2023/04/26 08:30:27;;;;;;;2.33;1.25;;;20.70;65.20;;;;;;5051155;28;20409;-29
2023/04/26 08:32:55;;;;;;;2.22;0.90;;;20.70;65.20;;;;;;5050828;28;20132;-29
2023/04/26 08:35:22;;;;;;;1.15;0.90;;;20.60;65.10;;;;;;5048931;28;20494;-29
2023/04/26 08:37:49;;;;;;;1.60;1.00;;;;;;;;;;5036957;28;20123;-29
2023/04/26 08:40:16;;;;;;;1.77;0.93;;;20.60;64.10;;;;;;5052941;28;20081;-29
2023/04/26 08:42:43;;;;;;;2.35;1.05;;;;;;;;;;5041960;28;20049;-30
2023/04/26 08:45:11;;;;;;;2.45;1.10;;;19.90;64.00;;;;;;5035750;28;20417;-29
2023/04/26 08:47:40;;;;;;;1.60;0.90;;;22.30;64.90;;;;;;5038585;28;20516;-30
2023/04/26 08:50:09;;;;;;;2.42;1.10;;;21.20;45.70;;;;;;5055566;28;20041;-31
2023/04/26 08:52:35;;;;;;;4.72;1.00;;;21.20;65.10;;;;;;5052731;28;20045;-30
2023/04/26 08:55:02;;;;;;;9.10;1.00;;;21.00;64.20;;;;;;5036444;28;20049;-30
2023/04/26 08:57:30;;;;;;;2.95;0.85;;;20.90;64.10;;;;;;5044730;28;20071;-30
2023/04/26 08:59:57;;;;;;;4.25;1.00;;;21.10;52.80;;;;;;5038007;28;20052;-29
2023/04/26 09:02:24;;;;;;;2.28;1.08;;;21.70;62.00;;;;;;5047615;28;20102;-29
2023/04/26 09:04:51;;;;;;;2.80;1.10;;;20.90;64.20;;;;;;5047566;28;20128;-29
2023/04/26 09:07:21;;;;;;;7.90;1.13;;;21.60;64.40;;;;;;5055292;28;20073;-29
2023/04/26 09:09:49;;;;;;;1.60;1.10;;;21.30;64.80;;;;;;5052967;28;20452;-29
2023/04/26 09:12:17;;;;;;;2.67;1.10;;;21.50;50.80;;;;;;5053683;28;20049;-30
2023/04/26 09:14:43;;;;;;;0.82;0.80;;;20.60;48.60;;;;;;5053343;28;20057;-29
2023/04/26 09:17:25;;;;;;;3.72;1.13;;;21.40;45.30;;;;;;5054445;28;20124;-29
2023/04/26 09:19:52;;;;;;;3.80;1.00;;;22.10;57.30;;;;;;5051751;28;20055;-29
2023/04/26 09:22:30;;;;;;;3.13;1.35;;;22.10;64.60;;;;;;5055422;28;20416;-29
2023/04/26 09:24:56;;;;;;;1.42;0.98;;;20.20;63.10;;;;;;5056209;28;20045;-30
2023/04/26 09:27:31;;;;;;;2.67;1.05;;;21.30;63.80;;;;;;5053309;28;20505;-29
2023/04/26 09:29:59;;;;;;;1.85;0.90;;;21.70;64.40;;;;;;5052810;28;20565;-29
2023/04/26 09:32:28;;;;;;;2.22;1.30;;;;;;;;;;5053778;28;20101;-31
2023/04/26 09:34:54;;;;;;;2.97;1.10;;;21.50;50.20;;;;;;5054417;28;20524;-30
2023/04/26 09:37:21;;;;;;;1.25;1.10;;;20.80;63.80;;;;;;5051043;28;20045;-29
2023/04/26 09:39:50;;;;;;;2.60;1.17;;;21.60;48.30;;;;;;5053876;28;20060;-29
2023/04/26 09:42:17;;;;;;;3.97;1.10;;;21.10;45.40;;;;;;5054519;28;20057;-30
2023/04/26 09:44:45;;;;;;;3.47;1.20;;;20.60;64.40;;;;;;5054703;28;20060;-29
2023/04/26 09:47:12;;;;;;;2.20;0.90;;;;;;;;;;5054181;28;20091;-29
2023/04/26 09:49:47;;;;;;;1.23;1.13;;;20.90;45.50;;;;;;5052368;28;20132;-31
2023/04/26 09:52:14;;;;;;;2.47;1.35;;;20.30;64.10;;;;;;5053874;28;20505;-29
2023/04/26 09:54:43;;;;;;;1.73;1.08;;;20.80;45.60;;;;;;5054651;28;20415;-31
2023/04/26 09:57:11;;;;;;;1.58;1.02;;;21.60;65.80;;;;;;5054410;28;20069;-29
2023/04/26 09:59:42;;;;;;;2.20;1.23;;;20.60;63.50;;;;;;5054567;28;20059;-30
2023/04/26 10:02:15;;;;;;;2.00;1.13;;;20.70;45.80;;;;;;5052472;28;20053;-29
2023/04/26 10:04:44;;;;;;;2.45;1.08;;;21.10;62.70;;;;;;5044058;28;20053;-29
2023/04/26 10:07:11;;;;;;;1.30;1.20;;;20.30;65.10;;;;;;5054556;28;20467;-29
2023/04/26 10:09:38;;;;;;;1.92;1.10;;;20.30;62.80;;;;;;5053711;28;20045;-29
2023/04/26 10:12:05;;;;;;;1.80;1.25;;;20.10;64.90;;;;;;5054110;28;20119;-29
2023/04/26 10:14:34;;;;;;;2.17;1.20;;;19.40;48.70;;;;;;5053955;28;20045;-29
2023/04/26 10:17:01;;;;;;;1.75;1.20;;;20.20;65.50;;;;;;5053699;28;20067;-29
2023/04/26 10:19:27;;;;;;;2.17;1.00;;;20.60;65.70;;;;;;5035924;28;20380;-29
2023/04/26 10:21:54;;;;;;;2.25;1.20;;;19.60;50.30;;;;;;5033850;28;20502;-29
2023/04/26 10:24:21;;;;;;;3.08;1.63;;;20.60;65.30;;;;;;5072853;28;20127;-29
2023/04/26 10:26:50;;;;;;;2.47;1.20;;;19.70;64.60;;;;;;5073622;28;20576;-29
2023/04/26 10:29:17;;;;;;;1.90;1.25;;;20.10;65.70;;;;;;5073582;28;20048;-29
2023/04/26 10:32:08;;;;;;;1.58;1.10;;;20.40;65.90;;;;;;5067986;28;20475;-29
2023/04/26 10:34:36;;;;;;;1.40;1.00;;;20.60;66.10;;;;;;5044380;28;20087;-29
2023/04/26 10:37:12;;;;;;;1.92;1.17;;;20.30;46.90;;;;;;5041802;28;20064;-29
2023/04/26 10:39:39;;;;;;;2.35;1.20;;;20.00;59.40;;;;;;5044903;28;20045;-29
2023/04/26 10:42:24;;;;;;;2.33;1.20;;;20.30;65.60;;;;;;5041379;28;20053;-29
2023/04/26 10:44:51;;;;;;;;;;;20.30;46.70;;;;;;5043567;28;20045;-29
2023/04/26 10:47:30;;;;;;;2.42;1.25;;;20.30;65.80;;;;;;5052120;28;20266;-29
2023/04/26 10:50:04;;;;;;;2.03;1.10;;;20.30;46.40;;;;;;5049416;28;20045;-30
2023/04/26 10:52:31;;;;;;;1.83;1.20;;;;;;;;;;5048333;28;20060;-30
2023/04/26 10:54:58;;;;;;;1.70;1.10;;;20.00;65.00;;;;;;5050797;28;20055;-29
2023/04/26 10:57:47;;;;;;;1.40;1.00;;;20.30;46.30;;;;;;5046847;28;20124;-29
2023/04/26 11:00:38;;;;;;;1.48;1.00;;;19.40;64.70;;;;;;5049620;28;20061;-29
2023/04/26 11:03:08;;;;;;;1.33;0.98;;;18.90;45.70;;;;;;5034426;28;20386;-29
2023/04/26 11:05:41;;;;;;;1.67;1.20;;;20.30;65.00;;;;;;5052370;28;20059;-29
2023/04/26 11:08:08;;;;;;;2.00;1.15;;;;;;;;;;5052598;28;20052;-30
2023/04/26 11:10:37;;;;;;;2.10;1.13;;;20.50;46.20;;;;;;5052817;28;20045;-30
2023/04/26 11:13:04;;;;;;;2.38;1.10;;;20.40;62.60;;;;;;5049466;28;20055;-29
2023/04/26 11:15:31;;;;;;;2.53;1.30;;;19.40;64.70;;;;;;5051992;28;20502;-29
2023/04/26 11:17:58;;;;;;;2.65;1.20;;;;;;;;;;5049418;28;20041;-30
2023/04/26 11:20:30;;;;;;;1.15;1.00;;;20.00;64.40;;;;;;5052583;28;20051;-29
2023/04/26 11:22:57;;;;;;;1.48;1.05;;;20.80;65.20;;;;;;5046850;28;20049;-29
2023/04/26 11:25:25;;;;;;;1.60;0.90;;;20.80;57.50;;;;;;5039986;28;20053;-29
2023/04/26 11:27:56;;;;;;;2.28;1.10;;;21.20;49.50;;;;;;5047342;28;20048;-29
2023/04/26 11:30:23;;;;;;;1.65;1.00;;;21.20;65.20;;;;;;5051532;28;20541;-29
2023/04/26 11:32:49;;;;;;;1.75;1.10;;;20.60;64.80;;;;;;5054012;28;20063;-29
2023/04/26 11:35:16;;;;;;;1.73;1.05;;;;;;;;;;5052153;28;20557;-30
2023/04/26 11:37:48;;;;;;;2.65;1.13;;;20.20;64.10;;;;;;5050085;28;20712;-29
2023/04/26 11:40:16;;;;;;;2.28;1.20;;;21.00;45.80;;;;;;5052367;28;20057;-29
2023/04/26 11:42:43;;;;;;;1.80;1.10;;;21.00;45.80;;;;;;5047692;28;20076;-30
2023/04/26 11:45:11;;;;;;;2.70;1.10;;;21.70;65.10;;;;;;5032277;28;20060;-29
2023/04/26 11:47:37;;;;;;;1.58;1.10;;;20.90;64.90;;;;;;5037006;28;20053;-29
2023/04/26 11:50:05;;;;;;;1.38;1.08;;;21.50;64.90;;;;;;5043926;28;20045;-29
2023/04/26 11:52:31;;;;;;;3.17;1.00;;;21.40;65.20;;;;;;5045670;28;20053;-29
2023/04/26 11:55:04;;;;;;;2.47;1.10;;;21.40;64.80;;;;;;5052263;28;20136;-29
2023/04/26 11:57:31;;;;;;;1.90;1.10;;;21.20;53.40;;;;;;5051787;28;20094;-29
2023/04/26 12:00:10;;;;;;;1.67;1.00;;;21.10;54.50;;;;;;5052241;28;20155;-29
2023/04/26 12:02:36;;;;;;;1.35;0.82;;;21.80;60.50;;;;;;5040229;28;20529;-29
2023/04/26 12:05:03;;;;;;;2.20;1.17;;;20.80;46.30;;;;;;5032120;28;20049;-29
2023/04/26 12:07:34;;;;;;;2.80;1.20;;;21.50;64.20;;;;;;5031776;28;20410;-29
2023/04/26 12:10:15;;;;;;;2.00;0.95;;;21.10;45.50;;;;;;5032024;28;20068;-30
2023/04/26 12:12:47;;;;;;;2.47;1.27;;;21.20;45.50;;;;;;5031245;28;20053;-29
2023/04/26 12:15:14;;;;;;;1.98;1.10;;;21.80;45.80;;;;;;5035109;28;20127;-32
2023/04/26 12:17:41;;;;;;;2.10;1.27;;;;;;;;;;5048449;28;20060;-29
2023/04/26 12:20:11;;;;;;;1.45;1.10;;;21.50;64.10;;;;;;5042479;28;20045;-29
2023/04/26 12:22:38;;;;;;;2.70;1.13;;;22.30;64.50;;;;;;5054849;28;20049;-29
2023/04/26 12:25:06;;;;;;;2.88;1.02;;;21.80;65.20;;;;;;5031662;28;20057;-29
2023/04/26 12:27:34;;;;;;;2.70;1.20;;;21.40;45.60;;;;;;5031375;28;20049;-29
2023/04/26 12:30:01;;;;;;;2.40;1.00;;;;;;;;;;5031443;28;20053;-29
2023/04/26 12:32:28;;;;;;;1.77;1.20;;;;;;;;;;5043614;28;20055;-31
2023/04/26 12:34:55;;;;;;;1.75;1.00;;;;;;;;;;5047161;28;20041;-29
2023/04/26 12:37:22;;;;;;;1.35;0.90;;;;;;;;;;5047849;28;20049;-30
2023/04/26 12:39:49;;;;;;;1.60;1.00;;;21.30;64.80;;;;;;5051237;28;20045;-29
2023/04/26 12:42:16;;;;;;;1.75;1.10;;;21.20;64.30;;;;;;5050469;28;20049;-29
2023/04/26 12:44:44;;;;;;;2.80;1.05;;;21.30;55.70;;;;;;5050439;28;20072;-30
2023/04/26 12:47:10;;;;;;;2.13;1.13;;;20.80;48.30;;;;;;5043719;28;20116;-29
2023/04/26 12:49:37;;;;;;;1.50;1.10;;;20.90;64.10;;;;;;5039971;28;20049;-29
2023/04/26 12:52:04;;;;;;;1.63;1.15;;;21.30;63.90;;;;;;5040028;28;20049;-29
2023/04/26 12:54:31;;;;;;;1.80;1.10;;;20.80;49.40;;;;;;5038666;28;20049;-30
2023/04/26 12:56:57;;;;;;;1.75;1.10;;;21.60;64.30;;;;;;5045152;28;20049;-29
2023/04/26 12:59:24;;;;;;;1.73;1.10;;;21.20;64.20;;;;;;5031148;28;20045;-28
2023/04/26 13:01:52;;;;;;;1.33;0.90;;;21.10;45.50;;;;;;5048321;28;20055;-29
2023/04/26 13:04:19;;;;;;;2.28;1.00;;;;;;;;;;5050355;28;20048;-30
2023/04/26 13:06:46;;;;;;;1.30;1.10;;;21.50;64.80;;;;;;5050516;28;20118;-29